createdAt,value
2018-05-27T09:07:31.271Z,101104.45
2018-05-27T09:09:58.830Z,101101.59
2018-05-27T09:12:26.560Z,101103.00
2018-05-27T09:14:54.135Z,101098.45
2018-05-27T09:17:22.262Z,101088.42
2018-05-27T09:19:49.814Z,101089.70
2018-05-27T09:22:17.369Z,101089.80
2018-05-27T09:24:44.889Z,101088.57
2018-05-27T09:27:13.698Z,101085.06
2018-05-27T09:29:41.204Z,101086.86
2018-05-27T09:32:08.748Z,101087.84
2018-05-27T09:34:36.286Z,101081.68
2018-05-27T09:37:03.867Z,101077.21
2018-05-27T09:39:31.440Z,101083.11
2018-05-27T09:41:59.008Z,101077.31
2018-05-27T09:44:26.600Z,101075.99
2018-05-27T09:46:54.111Z,101073.36
2018-05-27T09:49:21.632Z,101067.27
2018-05-27T09:51:49.148Z,101058.89
2018-05-27T09:54:16.657Z,101060.66
2018-05-27T09:56:44.135Z,101062.17
2018-05-27T09:59:11.830Z,101053.87
2018-05-27T10:01:39.357Z,101060.56
2018-05-27T10:04:07.049Z,101052.02
2018-05-27T10:06:34.671Z,101055.46
2018-05-27T10:09:02.197Z,101048.45
2018-05-27T10:11:29.869Z,101064.77
2018-05-27T10:13:57.493Z,101046.66
2018-05-27T10:16:25.440Z,101047.45
2018-05-27T10:18:53.128Z,101041.53
2018-05-27T10:21:20.680Z,101045.47
2018-05-27T10:23:48.278Z,101047.11
2018-05-27T10:26:15.831Z,101044.70
2018-05-27T10:28:43.915Z,101038.03
2018-05-27T10:31:11.470Z,101043.91
2018-05-27T10:33:38.963Z,101037.77
2018-05-27T10:36:06.967Z,101035.95
2018-05-27T10:38:34.840Z,101031.06
2018-05-27T10:41:02.474Z,101038.98
2018-05-27T10:43:29.982Z,101038.80
2018-05-27T10:45:57.528Z,101040.66
2018-05-27T10:48:25.226Z,101027.68
2018-05-27T10:50:53.584Z,101029.58
2018-05-27T10:53:21.125Z,101039.38
2018-05-27T10:55:50.127Z,101032.13
2018-05-27T10:58:17.715Z,101030.49
2018-05-27T11:00:46.156Z,101020.22
2018-05-27T11:03:14.636Z,101023.80
2018-05-27T11:05:42.243Z,101015.31
2018-05-27T11:08:09.870Z,101002.50
2018-05-27T11:10:37.543Z,101009.13
2018-05-27T11:13:06.020Z,100998.56
2018-05-27T11:15:33.700Z,101007.97
2018-05-27T11:18:01.253Z,101002.47
2018-05-27T11:20:28.797Z,100999.97
2018-05-27T11:22:56.285Z,100996.41
2018-05-27T11:25:23.842Z,101002.41
2018-05-27T11:27:51.347Z,100993.45
2018-05-27T11:30:18.875Z,100990.47
2018-05-27T11:32:46.382Z,100999.66
2018-05-27T11:35:13.890Z,100993.04
2018-05-27T11:37:41.386Z,100986.42
2018-05-27T11:40:08.880Z,100974.75
2018-05-27T11:42:36.403Z,100976.69
2018-05-27T11:45:03.917Z,100969.63
2018-05-27T11:47:31.461Z,100976.64
2018-05-27T11:49:58.984Z,100973.51
2018-05-27T11:52:26.629Z,100966.81
2018-05-27T11:54:54.187Z,100958.19
2018-05-27T11:57:21.662Z,100949.37
2018-05-27T11:59:49.164Z,100953.28
2018-05-27T12:02:16.859Z,100939.21
2018-05-27T12:04:44.379Z,100941.38
2018-05-27T12:07:11.970Z,100946.38
2018-05-27T12:09:39.646Z,100941.30
2018-05-27T12:12:07.043Z,100932.89
2018-05-27T12:14:34.564Z,100933.08
2018-05-27T12:17:02.122Z,100923.45
2018-05-27T12:19:29.655Z,100922.97
2018-05-27T12:21:57.238Z,100919.94
2018-05-27T12:24:24.740Z,100919.11
2018-05-27T12:26:52.270Z,100924.73
2018-05-27T12:29:19.852Z,100913.85
2018-05-27T12:31:47.411Z,100914.20
2018-05-27T12:34:14.970Z,100913.62
2018-05-27T12:36:42.562Z,100921.36
2018-05-27T12:39:10.148Z,100910.09
2018-05-27T12:41:37.651Z,100904.82
2018-05-27T12:44:05.215Z,100902.47
2018-05-27T12:46:32.768Z,100899.16
2018-05-27T12:49:00.293Z,100904.66
2018-05-27T12:51:27.937Z,100902.15
2018-05-27T12:53:55.583Z,100902.16
2018-05-27T12:56:23.107Z,100901.42
2018-05-27T12:58:50.607Z,100911.09
2018-05-27T13:01:18.084Z,100901.44
2018-05-27T13:03:45.614Z,100902.44
2018-05-27T13:06:13.281Z,100894.24
2018-05-27T13:08:41.038Z,100903.55
2018-05-27T13:11:09.304Z,100901.14
2018-05-27T13:16:19.532Z,100891.03
2018-05-27T13:18:47.006Z,100878.11
2018-05-27T13:21:14.566Z,100878.30
2018-05-27T13:23:42.458Z,100873.56
2018-05-27T13:26:10.222Z,100868.68
2018-05-27T13:28:37.890Z,100871.64
2018-05-27T13:31:08.789Z,100869.73
2018-05-27T13:33:36.447Z,100869.02
2018-05-27T13:36:04.455Z,100862.93
2018-05-27T13:38:32.163Z,100860.64
2018-05-27T13:40:59.771Z,100859.19
2018-05-27T13:43:27.447Z,100860.23
2018-05-27T13:45:55.112Z,100855.23
2018-05-27T13:48:22.807Z,100864.89
2018-05-27T13:50:51.454Z,100851.16
2018-05-27T13:53:19.133Z,100856.28
2018-05-27T13:55:46.959Z,100852.20
2018-05-27T13:58:14.748Z,100847.09
2018-05-27T14:00:42.684Z,100848.58
2018-05-27T14:03:10.280Z,100847.90
2018-05-27T14:05:37.980Z,100835.03
2018-05-27T14:08:05.612Z,100841.12
2018-05-27T14:10:33.405Z,100839.91
2018-05-27T14:13:01.011Z,100843.22
2018-05-27T14:15:28.641Z,100840.45
2018-05-27T14:17:56.271Z,100842.38
2018-05-27T14:20:24.005Z,100835.39
2018-05-27T14:22:51.665Z,100833.52
2018-05-27T14:25:19.255Z,100834.05
2018-05-27T14:27:46.769Z,100831.64
2018-05-27T14:30:14.287Z,100839.06
2018-05-27T14:32:41.799Z,100831.17
2018-05-27T14:35:09.349Z,100829.15
2018-05-27T14:37:36.899Z,100824.49
2018-05-27T14:40:04.471Z,100827.16
2018-05-27T14:42:31.984Z,100822.24
2018-05-27T14:44:59.479Z,100829.15
2018-05-27T14:47:26.995Z,100817.98
2018-05-27T14:49:54.603Z,100822.42
2018-05-27T14:52:22.189Z,100820.31
2018-05-27T14:54:49.699Z,100819.61
2018-05-27T14:57:17.257Z,100821.16
2018-05-27T14:59:44.846Z,100830.02
2018-05-27T15:02:12.498Z,100827.84
2018-05-27T15:04:40.033Z,100825.20
2018-05-27T15:07:07.548Z,100823.98
2018-05-27T15:09:36.044Z,100813.20
2018-05-27T15:12:03.576Z,100813.14
2018-05-27T15:14:32.021Z,100807.64
2018-05-27T15:17:00.091Z,100802.05
2018-05-27T15:19:27.654Z,100801.22
2018-05-27T15:21:55.604Z,100805.12
2018-05-27T15:24:23.682Z,100800.44
2018-05-27T15:27:00.070Z,100795.69
2018-05-27T15:29:27.764Z,100793.61
2018-05-27T15:31:55.412Z,100785.32
2018-05-27T15:34:23.328Z,100792.91
2018-05-27T15:36:50.913Z,100790.89
2018-05-27T15:39:18.588Z,100785.31
2018-05-27T15:41:46.179Z,100783.94
2018-05-27T15:44:13.800Z,100784.96
2018-05-27T15:46:41.395Z,100773.68
2018-05-27T15:49:09.092Z,100781.09
2018-05-27T15:51:36.771Z,100778.38
2018-05-27T15:54:04.439Z,100781.26
2018-05-27T15:56:32.034Z,100776.88
2018-05-27T15:58:59.635Z,100777.62
2018-05-27T16:01:27.131Z,100775.51
2018-05-27T16:03:54.660Z,100771.78
2018-05-27T16:06:22.140Z,100777.06
2018-05-27T16:08:49.736Z,100786.31
2018-05-27T16:11:17.244Z,100775.81
2018-05-27T16:13:44.863Z,100781.06
2018-05-27T16:16:12.384Z,100778.01
2018-05-27T16:18:39.929Z,100784.02
2018-05-27T16:21:07.493Z,100783.11
2018-05-27T16:23:35.021Z,100783.50
2018-05-27T16:26:02.592Z,100785.38
2018-05-27T16:28:30.247Z,100790.29
2018-05-27T16:30:57.818Z,100783.20
2018-05-27T16:33:25.365Z,100783.05
2018-05-27T16:35:52.979Z,100778.09
2018-05-27T16:38:20.502Z,100776.25
2018-05-27T16:40:48.073Z,100783.91
2018-05-27T16:43:15.608Z,100781.55
2018-05-27T16:45:43.142Z,100776.73
2018-05-27T16:48:10.706Z,100767.32
2018-05-27T16:50:38.224Z,100763.23
2018-05-27T16:53:05.725Z,100764.13
2018-05-27T16:55:33.212Z,100772.35
2018-05-27T16:58:00.742Z,100767.66
2018-05-27T17:00:28.297Z,100778.84
2018-05-27T17:02:55.818Z,100774.91
2018-05-27T17:05:23.858Z,100772.58
2018-05-27T17:07:51.517Z,100777.20
2018-05-27T17:10:19.094Z,100775.02
2018-05-27T17:12:46.604Z,100779.03
2018-05-27T17:15:14.121Z,100785.22
2018-05-27T17:17:41.710Z,100784.64
2018-05-27T17:20:09.256Z,100786.17
2018-05-27T17:22:36.769Z,100807.56
2018-05-27T17:25:04.431Z,100808.88
2018-05-27T17:27:32.069Z,100819.79
2018-05-27T17:29:59.576Z,100819.01
2018-05-27T17:32:28.086Z,100818.92
2018-05-27T17:34:55.605Z,100815.82
2018-05-27T17:37:23.121Z,100818.74
2018-05-27T17:39:50.687Z,100815.71
2018-05-27T17:42:18.190Z,100819.59
2018-05-27T17:44:45.700Z,100820.55
2018-05-27T17:47:13.203Z,100820.97
2018-05-27T17:49:40.779Z,100817.94
2018-05-27T17:52:08.338Z,100813.73
2018-05-27T17:54:36.537Z,100807.72
2018-05-27T17:57:04.853Z,100801.17
2018-05-27T17:59:32.479Z,100799.80
2018-05-27T18:02:00.047Z,100794.38
2018-05-27T18:04:27.605Z,100794.65
2018-05-27T18:06:55.200Z,100789.81
2018-05-27T18:09:22.818Z,100792.44
2018-05-27T18:11:50.378Z,100787.92
2018-05-27T18:14:17.899Z,100783.44
2018-05-27T18:16:45.430Z,100792.84
2018-05-27T18:19:13.062Z,100788.44
2018-05-27T18:21:40.639Z,100791.30
2018-05-27T18:24:08.201Z,100788.26
2018-05-27T18:26:35.875Z,100795.00
2018-05-27T18:29:03.400Z,100797.88
2018-05-27T18:31:30.892Z,100798.47
2018-05-27T18:33:58.386Z,100795.35
2018-05-27T18:36:31.533Z,100799.55
2018-05-27T18:38:59.137Z,100798.22
2018-05-27T18:41:26.649Z,100792.69
2018-05-27T18:43:54.174Z,100792.95
2018-05-27T18:46:21.732Z,100780.61
2018-05-27T18:48:49.231Z,100781.77
2018-05-27T18:51:16.733Z,100776.89
2018-05-27T18:53:44.279Z,100771.14
2018-05-27T18:56:11.761Z,100765.63
2018-05-27T18:58:39.258Z,100768.31
2018-05-27T19:01:06.763Z,100765.87
2018-05-27T19:03:34.336Z,100773.33
2018-05-27T19:06:01.879Z,100774.97
2018-05-27T19:08:29.428Z,100776.44
2018-05-27T19:10:56.910Z,100779.79
2018-05-27T19:13:24.462Z,100790.84
2018-05-27T19:15:52.010Z,100795.59
2018-05-27T19:18:19.552Z,100805.64
2018-05-27T19:20:47.126Z,100805.06
2018-05-27T19:23:14.667Z,100806.27
2018-05-27T19:25:42.232Z,100814.72
2018-05-27T19:28:09.823Z,100807.89
2018-05-27T19:30:37.358Z,100810.95
2018-05-27T19:33:04.863Z,100821.26
2018-05-27T19:35:32.456Z,100825.42
2018-05-27T19:38:00.014Z,100824.86
2018-05-27T19:40:27.546Z,100837.82
2018-05-27T19:42:55.792Z,100845.25
2018-05-27T19:45:23.367Z,100844.20
2018-05-27T19:47:50.875Z,100848.91
2018-05-27T19:50:18.420Z,100846.31
2018-05-27T19:52:47.016Z,100842.48
2018-05-27T19:55:14.944Z,100841.33
2018-05-27T19:57:42.433Z,100845.03
2018-05-27T20:00:10.147Z,100844.59
2018-05-27T20:02:37.663Z,100848.30
2018-05-27T20:05:05.173Z,100849.28
2018-05-27T20:07:33.407Z,100846.28
2018-05-27T20:10:00.962Z,100853.86
2018-05-27T20:12:28.487Z,100849.20
2018-05-27T20:14:56.044Z,100846.80
2018-05-27T20:17:23.539Z,100845.02
2018-05-27T20:19:51.043Z,100844.52
2018-05-27T20:22:18.622Z,100850.72
2018-05-27T20:24:46.110Z,100851.28
2018-05-27T20:27:13.668Z,100843.69
2018-05-27T20:29:42.128Z,100836.41
2018-05-27T20:32:09.672Z,100833.54
2018-05-27T20:34:37.235Z,100832.05
2018-05-27T20:37:04.751Z,100832.38
2018-05-27T20:39:32.289Z,100837.95
2018-05-27T20:41:59.812Z,100840.98
2018-05-27T20:44:27.409Z,100842.46
2018-05-27T20:46:54.932Z,100843.92
2018-05-27T20:49:22.404Z,100835.78
2018-05-27T20:51:49.894Z,100832.98
2018-05-27T20:54:17.428Z,100833.22
2018-05-27T20:56:44.991Z,100827.03
2018-05-27T20:59:12.512Z,100822.58
2018-05-27T21:01:40.212Z,100826.84
2018-05-27T21:04:07.843Z,100823.52
2018-05-27T21:06:35.335Z,100834.01
2018-05-27T21:09:03.917Z,100842.25
2018-05-27T21:11:32.076Z,100840.26
2018-05-27T21:13:59.607Z,100854.34
2018-05-27T21:16:27.128Z,100854.92
2018-05-27T21:18:54.626Z,100856.40
2018-05-27T21:21:22.173Z,100859.81
2018-05-27T21:23:49.736Z,100855.30
2018-05-27T21:26:17.253Z,100859.18
2018-05-27T21:28:44.771Z,100865.54
2018-05-27T21:31:12.294Z,100868.33
2018-05-27T21:33:39.787Z,100872.82
2018-05-27T21:36:07.329Z,100873.17
2018-05-27T21:38:34.804Z,100874.27
2018-05-27T21:41:02.343Z,100870.81
2018-05-27T21:43:29.902Z,100875.02
2018-05-27T21:45:57.421Z,100872.27
2018-05-27T21:48:24.998Z,100876.17
2018-05-27T21:50:52.570Z,100879.41
2018-05-27T21:53:20.094Z,100876.73
2018-05-27T21:55:47.619Z,100878.44
2018-05-27T21:58:15.134Z,100882.06
2018-05-27T22:00:42.667Z,100889.12
2018-05-27T22:03:10.170Z,100886.38
2018-05-27T22:05:37.698Z,100881.14
2018-05-27T22:08:05.210Z,100878.98
2018-05-27T22:10:32.770Z,100877.49
2018-05-27T22:13:00.390Z,100873.44
2018-05-27T22:15:27.881Z,100874.58
2018-05-27T22:17:56.367Z,100868.46
2018-05-27T22:20:23.920Z,100873.05
2018-05-27T22:22:51.428Z,100879.59
2018-05-27T22:25:18.958Z,100875.47
2018-05-27T22:27:46.473Z,100878.67
2018-05-27T22:30:14.018Z,100877.52
2018-05-27T22:32:41.556Z,100884.59
2018-05-27T22:35:09.106Z,100878.74
2018-05-27T22:37:36.693Z,100877.44
2018-05-27T22:40:04.261Z,100873.34
2018-05-27T22:42:31.811Z,100873.22
2018-05-27T22:44:59.366Z,100871.45
2018-05-27T22:47:26.925Z,100868.44
2018-05-27T22:49:54.504Z,100872.62
2018-05-27T22:52:22.046Z,100873.97
2018-05-27T22:54:49.593Z,100864.25
2018-05-27T22:57:17.084Z,100867.62
2018-05-27T22:59:44.627Z,100867.83
2018-05-27T23:02:12.170Z,100867.27
2018-05-27T23:07:36.617Z,100870.22
2018-05-27T23:10:04.193Z,100868.57
2018-05-27T23:12:31.895Z,100877.19
2018-05-27T23:14:59.383Z,100874.37
2018-05-27T23:17:26.966Z,100876.21
2018-05-27T23:19:54.541Z,100877.44
2018-05-27T23:22:22.052Z,100876.87
2018-05-27T23:24:49.590Z,100887.11
2018-05-27T23:27:17.102Z,100878.37
2018-05-27T23:29:44.634Z,100876.93
2018-05-27T23:32:12.169Z,100877.61
2018-05-27T23:34:39.668Z,100877.30
2018-05-27T23:37:07.197Z,100868.39
2018-05-27T23:39:34.809Z,100866.31
2018-05-27T23:42:02.324Z,100866.50
2018-05-27T23:44:29.878Z,100866.87
2018-05-27T23:46:57.434Z,100866.87
2018-05-27T23:49:25.007Z,100863.16
2018-05-27T23:51:52.550Z,100865.27
2018-05-27T23:54:20.109Z,100860.37
2018-05-27T23:56:47.606Z,100856.31
2018-05-27T23:59:15.120Z,100855.48
